sensor_id;sensor_type;location;lat;lon;timestamp;pressure;altitude;pressure_sealevel;temperature;humidity
61136;BME280;47021;51.340;12.432;2024-02-15T00:04:26;100380.16;;;16.43;59.59
61136;BME280;47021;51.340;12.432;2024-02-15T00:18:02;100363.53;;;16.50;59.21
61136;BME280;47021;51.340;12.432;2024-02-15T18:23:50;100216.31;;;19.41;51.50
61136;BME280;47021;51.340;12.432;2024-02-15T18:26:48;100226.66;;;19.36;52.31
61136;BME280;47021;51.340;12.432;2024-02-15T18:29:20;100221.41;;;19.28;52.78
61136;BME280;47021;51.340;12.432;2024-02-15T18:40:23;100230.69;;;19.10;53.52
61136;BME280;47021;51.340;12.432;2024-02-15T18:45:52;100228.50;;;19.13;53.65
61136;BME280;47021;51.340;12.432;2024-02-15T19:02:15;100219.59;;;18.91;53.91
61136;BME280;47021;51.340;12.432;2024-02-15T19:04:43;100223.91;;;18.70;54.74
61136;BME280;47021;51.340;12.432;2024-02-15T19:18:38;100218.56;;;18.78;53.52
61136;BME280;47021;51.340;12.432;2024-02-15T19:27:12;100201.59;;;18.72;54.08
61136;BME280;47021;51.340;12.432;2024-02-15T19:35:18;100181.19;;;18.27;54.74
61136;BME280;47021;51.340;12.432;2024-02-15T19:51:54;100168.91;;;18.12;54.94
61136;BME280;47021;51.340;12.432;2024-02-15T19:57:23;100174.31;;;18.49;53.88
61136;BME280;47021;51.340;12.432;2024-02-15T20:02:50;100170.31;;;18.22;54.06
61136;BME280;47021;51.340;12.432;2024-02-15T20:05:27;100171.56;;;18.12;54.73
61136;BME280;47021;51.340;12.432;2024-02-15T20:08:10;100169.97;;;18.25;54.26
61136;BME280;47021;51.340;12.432;2024-02-15T20:10:56;100174.63;;;18.23;54.34
61136;BME280;47021;51.340;12.432;2024-02-15T20:13:24;100180.44;;;18.19;54.20
61136;BME280;47021;51.340;12.432;2024-02-15T20:15:52;100175.88;;;18.36;54.17
61136;BME280;47021;51.340;12.432;2024-02-15T20:18:20;100176.63;;;18.44;53.76
61136;BME280;47021;51.340;12.432;2024-02-15T20:23:31;100180.81;;;17.77;55.33
61136;BME280;47021;51.340;12.432;2024-02-15T20:25:57;100190.09;;;17.73;55.86
61136;BME280;47021;51.340;12.432;2024-02-15T20:28:22;100178.34;;;18.06;54.78
61136;BME280;47021;51.340;12.432;2024-02-15T20:30:47;100183.59;;;17.84;55.06
61136;BME280;47021;51.340;12.432;2024-02-15T20:33:13;100181.78;;;18.15;54.62
61136;BME280;47021;51.340;12.432;2024-02-15T20:35:39;100176.88;;;18.04;54.10
61136;BME280;47021;51.340;12.432;2024-02-15T20:38:04;100168.31;;;18.24;53.91
61136;BME280;47021;51.340;12.432;2024-02-15T20:40:37;100173.50;;;18.18;53.69
61136;BME280;47021;51.340;12.432;2024-02-15T20:43:14;100181.59;;;18.16;53.83
61136;BME280;47021;51.340;12.432;2024-02-15T20:45:43;100177.69;;;18.12;54.08
61136;BME280;47021;51.340;12.432;2024-02-15T20:48:11;100178.31;;;18.14;53.61
61136;BME280;47021;51.340;12.432;2024-02-15T20:50:46;100179.91;;;17.62;54.98
61136;BME280;47021;51.340;12.432;2024-02-15T20:58:49;100172.00;;;18.15;53.28
61136;BME280;47021;51.340;12.432;2024-02-15T21:01:24;100174.72;;;18.07;53.76
61136;BME280;47021;51.340;12.432;2024-02-15T21:04:06;100168.56;;;18.15;53.70
61136;BME280;47021;51.340;12.432;2024-02-15T21:06:43;100174.06;;;18.05;53.15
61136;BME280;47021;51.340;12.432;2024-02-15T21:09:12;100174.81;;;17.91;54.04
61136;BME280;47021;51.340;12.432;2024-02-15T21:14:38;100170.56;;;17.82;54.10
61136;BME280;47021;51.340;12.432;2024-02-15T21:17:11;100167.59;;;17.85;53.73
61136;BME280;47021;51.340;12.432;2024-02-15T21:19:42;100167.84;;;17.59;54.30
61136;BME280;47021;51.340;12.432;2024-02-15T21:22:12;100165.03;;;17.69;54.12
61136;BME280;47021;51.340;12.432;2024-02-15T21:27:37;100148.13;;;17.78;53.67
61136;BME280;47021;51.340;12.432;2024-02-15T21:30:15;100152.16;;;17.66;54.22
61136;BME280;47021;51.340;12.432;2024-02-15T21:35:56;100147.41;;;17.53;54.61
61136;BME280;47021;51.340;12.432;2024-02-15T21:38:28;100155.84;;;17.33;54.56
61136;BME280;47021;51.340;12.432;2024-02-15T21:40:53;100153.41;;;17.31;54.47
61136;BME280;47021;51.340;12.432;2024-02-15T21:43:57;100149.88;;;17.47;54.54
61136;BME280;47021;51.340;12.432;2024-02-15T21:46:41;100142.44;;;17.50;53.90
61136;BME280;47021;51.340;12.432;2024-02-15T21:49:13;100144.94;;;17.52;54.34
61136;BME280;47021;51.340;12.432;2024-02-15T21:54:47;100144.59;;;17.47;53.91
61136;BME280;47021;51.340;12.432;2024-02-15T21:57:34;100144.25;;;17.50;53.65
61136;BME280;47021;51.340;12.432;2024-02-15T22:11:37;100146.63;;;17.29;54.18
61136;BME280;47021;51.340;12.432;2024-02-15T22:17:24;100141.34;;;17.29;54.31
61136;BME280;47021;51.340;12.432;2024-02-15T22:25:27;100142.16;;;17.37;53.70
61136;BME280;47021;51.340;12.432;2024-02-15T22:27:55;100136.72;;;17.39;53.88
61136;BME280;47021;51.340;12.432;2024-02-15T22:33:06;100139.63;;;16.97;54.47
61136;BME280;47021;51.340;12.432;2024-02-15T22:35:32;100137.00;;;16.81;54.69
61136;BME280;47021;51.340;12.432;2024-02-15T22:38:05;100132.03;;;16.94;54.59
61136;BME280;47021;51.340;12.432;2024-02-15T22:40:31;100127.94;;;16.83;54.87
61136;BME280;47021;51.340;12.432;2024-02-15T22:42:56;100130.22;;;16.94;54.53
61136;BME280;47021;51.340;12.432;2024-02-15T22:45:30;100128.59;;;16.93;54.39
61136;BME280;47021;51.340;12.432;2024-02-15T22:47:55;100124.94;;;16.94;54.61
61136;BME280;47021;51.340;12.432;2024-02-15T22:50:22;100119.72;;;16.62;55.04
61136;BME280;47021;51.340;12.432;2024-02-15T22:52:48;100117.75;;;16.64;54.70
61136;BME280;47021;51.340;12.432;2024-02-15T22:55:13;100115.59;;;16.68;54.52
61136;BME280;47021;51.340;12.432;2024-02-15T22:57:46;100118.09;;;16.61;54.57
61136;BME280;47021;51.340;12.432;2024-02-15T23:00:11;100105.06;;;16.60;54.80
61136;BME280;47021;51.340;12.432;2024-02-15T23:02:42;100106.19;;;16.49;54.81
61136;BME280;47021;51.340;12.432;2024-02-15T23:05:14;100110.78;;;16.15;55.58
61136;BME280;47021;51.340;12.432;2024-02-15T23:07:41;100110.31;;;16.36;55.17
61136;BME280;47021;51.340;12.432;2024-02-15T23:10:07;100109.50;;;16.27;55.74
61136;BME280;47021;51.340;12.432;2024-02-15T23:12:34;100107.81;;;16.34;55.19
61136;BME280;47021;51.340;12.432;2024-02-15T23:14:59;100112.13;;;16.35;55.33
61136;BME280;47021;51.340;12.432;2024-02-15T23:17:30;100105.03;;;16.36;54.89
61136;BME280;47021;51.340;12.432;2024-02-15T23:19:55;100110.47;;;16.34;54.88
61136;BME280;47021;51.340;12.432;2024-02-15T23:24:55;100103.31;;;15.86;56.51
61136;BME280;47021;51.340;12.432;2024-02-15T23:27:33;100102.34;;;15.87;56.14
61136;BME280;47021;51.340;12.432;2024-02-15T23:30:11;100099.41;;;15.90;56.07
61136;BME280;47021;51.340;12.432;2024-02-15T23:32:38;100095.97;;;16.14;55.52
61136;BME280;47021;51.340;12.432;2024-02-15T23:35:04;100092.84;;;16.18;55.01
61136;BME280;47021;51.340;12.432;2024-02-15T23:37:30;100092.84;;;16.27;55.07
61136;BME280;47021;51.340;12.432;2024-02-15T23:42:31;100093.69;;;16.27;54.58
61136;BME280;47021;51.340;12.432;2024-02-15T23:45:14;100085.94;;;16.25;54.94
61136;BME280;47021;51.340;12.432;2024-02-15T23:47:53;100082.63;;;16.40;54.46
61136;BME280;47021;51.340;12.432;2024-02-15T23:50:27;100082.47;;;16.33;54.28
61136;BME280;47021;51.340;12.432;2024-02-15T23:55:36;100085.44;;;16.14;55.06
61136;BME280;47021;51.340;12.432;2024-02-15T23:58:08;100092.66;;;16.12;55.25
